Time;durP1;ratioP1;P1;durP2;ratioP2;P2;SDS_P1;SDS_P2;PMS_P1;PMS_P2;Temp;Humidity;BMP_temperature;BMP_pressure;BME280_temperature;BME280_humidity;BME280_pressure;Samples;Min_cycle;Max_cycle;Signal;HPM_P1;HPM_P2
2022/06/26 00:02:21;;;;;;;3.67;2.40;;;;;;;;;;5033238;28;20227;-84
2022/06/26 00:04:48;;;;;;;2.38;2.08;;;;;;;;;;5032671;28;20249;-84
2022/06/26 00:07:15;;;;;;;3.05;2.42;;;;;;;;;;5033373;28;20241;-84
2022/06/26 00:09:44;;;;;;;5.10;2.50;;;;;;;;;;5033043;28;20702;-84
2022/06/26 00:12:11;;;;;;;2.35;2.10;;;;;;;;;;5032990;28;20265;-84
2022/06/26 00:14:38;;;;;;;2.47;2.28;;;;;;;;;;5032495;28;20701;-84
2022/06/26 00:17:05;;;;;;;2.30;2.20;;;;;;;;;;5033113;28;20202;-84
2022/06/26 00:19:33;;;;;;;4.78;2.08;;;;;;;;;;5032450;28;20242;-84
2022/06/26 00:22:05;;;;;;;2.97;2.08;;;;;;;;;;5032965;28;20233;-83
2022/06/26 00:24:32;;;;;;;1.90;1.73;;;;;;;;;;5032634;28;20237;-84
2022/06/26 00:27:02;;;;;;;2.22;1.98;;;;;;;;;;5033146;28;20218;-83
2022/06/26 00:29:29;;;;;;;4.78;2.40;;;;;;;;;;5032369;28;20325;-83
2022/06/26 00:31:57;;;;;;;2.67;2.13;;;;;;;;;;5033053;28;20235;-84
2022/06/26 00:34:24;;;;;;;1.80;1.70;;;;;;;;;;5032418;28;20313;-84
2022/06/26 00:36:51;;;;;;;3.10;1.80;;;;;;;;;;5033141;28;20206;-84
2022/06/26 00:39:18;;;;;;;1.70;1.60;;;;;;;;;;5032210;28;20243;-84
2022/06/26 00:41:45;;;;;;;3.92;1.70;;;;;;;;;;5032637;28;20225;-84
2022/06/26 00:44:18;;;;;;;3.08;1.70;;;;;;;;;;5032178;28;20238;-84
2022/06/26 00:46:45;;;;;;;2.10;1.63;;;;;;;;;;5032946;28;20214;-84
2022/06/26 00:49:12;;;;;;;1.75;1.65;;;;;;;;;;5032268;28;20230;-84
2022/06/26 00:51:41;;;;;;;1.63;1.52;;;;;;;;;;5032416;28;20726;-84
2022/06/26 00:54:08;;;;;;;1.55;1.45;;;;;;;;;;5031957;28;20711;-84
2022/06/26 00:56:35;;;;;;;3.60;1.65;;;;;;;;;;5029849;28;20207;-83
2022/06/26 00:59:03;;;;;;;2.10;1.27;;;;;;;;;;5031849;28;20249;-83
2022/06/26 01:01:31;;;;;;;1.95;1.45;;;;;;;;;;5024394;28;20277;-84
2022/06/26 01:03:58;;;;;;;1.52;1.30;;;;;;;;;;5031761;28;20736;-84
2022/06/26 01:06:26;;;;;;;2.17;1.30;;;;;;;;;;5023933;28;20219;-84
2022/06/26 01:08:53;;;;;;;1.30;1.20;;;;;;;;;;5021962;28;20699;-83
2022/06/26 01:11:20;;;;;;;1.55;1.38;;;;;;;;;;5012370;28;20293;-84
2022/06/26 01:13:49;;;;;;;1.60;1.50;;;;;;;;;;5028354;28;20203;-84
2022/06/26 01:16:16;;;;;;;1.70;1.60;;;;;;;;;;5032180;28;20214;-84
2022/06/26 01:18:45;;;;;;;2.22;1.60;;;;;;;;;;5032191;28;20238;-84
2022/06/26 01:21:13;;;;;;;6.22;1.40;;;;;;;;;;5032166;28;20231;-84
2022/06/26 01:23:41;;;;;;;3.03;1.52;;;;;;;;;;5031566;28;20207;-84
2022/06/26 01:26:08;;;;;;;1.77;1.40;;;;;;;;;;5032205;28;20214;-83
2022/06/26 01:28:35;;;;;;;1.70;1.60;;;;;;;;;;5031594;28;20195;-84
2022/06/26 01:31:02;;;;;;;1.60;1.40;;;;;;;;;;5031985;28;20230;-84
2022/06/26 01:33:30;;;;;;;2.50;1.45;;;;;;;;;;5031535;28;20356;-83
2022/06/26 01:35:57;;;;;;;3.05;1.50;;;;;;;;;;5032340;28;20229;-84
2022/06/26 01:38:25;;;;;;;3.22;1.40;;;;;;;;;;5032449;28;20211;-84
2022/06/26 01:40:54;;;;;;;2.55;1.60;;;;;;;;;;5031401;28;20234;-83
2022/06/26 01:43:23;;;;;;;1.73;1.63;;;;;;;;;;5031493;28;20206;-83
2022/06/26 01:45:52;;;;;;;1.88;1.40;;;;;;;;;;5031550;28;20238;-83
2022/06/26 01:48:19;;;;;;;3.42;1.50;;;;;;;;;;5031878;28;20663;-84
2022/06/26 01:50:46;;;;;;;1.88;1.77;;;;;;;;;;5031262;28;20238;-84
2022/06/26 01:53:14;;;;;;;1.88;1.77;;;;;;;;;;5031578;28;20227;-84
2022/06/26 01:55:41;;;;;;;2.00;1.90;;;;;;;;;;5031515;28;20241;-84
2022/06/26 01:58:10;;;;;;;2.55;1.77;;;;;;;;;;5031970;28;20226;-83
2022/06/26 02:00:37;;;;;;;3.30;2.13;;;;;;;;;;5031650;28;20711;-85
2022/06/26 02:03:05;;;;;;;1.80;1.70;;;;;;;;;;5031731;28;20571;-83
2022/06/26 02:05:32;;;;;;;5.43;2.00;;;;;;;;;;5031362;28;20242;-84
2022/06/26 02:07:59;;;;;;;1.60;1.52;;;;;;;;;;5032015;28;20618;-84
2022/06/26 02:15:59;;;;;;;2.58;1.60;;;;;;;;;;5034299;28;20292;-84
2022/06/26 02:18:26;;;;;;;1.80;1.70;;;;;;;;;;5032806;28;20203;-84
2022/06/26 02:20:54;;;;;;;2.30;1.70;;;;;;;;;;5033368;28;20250;-84
2022/06/26 02:23:21;;;;;;;2.00;1.80;;;;;;;;;;5035208;28;20230;-82
2022/06/26 02:25:48;;;;;;;2.08;1.85;;;;;;;;;;5034835;28;20238;-84
2022/06/26 02:28:17;;;;;;;2.08;1.52;;;;;;;;;;5035718;28;20214;-83
2022/06/26 02:30:44;;;;;;;1.80;1.70;;;;;;;;;;5034818;28;20652;-84
2022/06/26 02:33:11;;;;;;;2.35;1.55;;;;;;;;;;5034716;28;20759;-84
2022/06/26 02:35:38;;;;;;;1.67;1.58;;;;;;;;;;5034973;28;20238;-84
2022/06/26 02:38:05;;;;;;;3.53;2.00;;;;;;;;;;5035004;28;20571;-83
2022/06/26 02:40:33;;;;;;;1.65;1.55;;;;;;;;;;5034632;28;20239;-84
2022/06/26 02:43:00;;;;;;;1.42;1.33;;;;;;;;;;5035087;28;20322;-84
2022/06/26 02:45:29;;;;;;;2.53;1.90;;;;;;;;;;5034382;28;20238;-84
2022/06/26 02:47:56;;;;;;;1.90;1.80;;;;;;;;;;5034512;28;20202;-84
2022/06/26 02:50:23;;;;;;;2.08;1.60;;;;;;;;;;5034582;28;20238;-84
2022/06/26 02:52:50;;;;;;;1.70;1.60;;;;;;;;;;5034895;28;20583;-84
2022/06/26 02:55:18;;;;;;;8.25;2.00;;;;;;;;;;5034134;28;20234;-84
2022/06/26 02:57:45;;;;;;;2.50;1.90;;;;;;;;;;5034827;28;20215;-84
2022/06/26 03:00:13;;;;;;;3.05;1.90;;;;;;;;;;5034219;28;20245;-83
2022/06/26 03:02:42;;;;;;;4.03;2.22;;;;;;;;;;5036282;28;20234;-84
2022/06/26 03:05:09;;;;;;;1.90;1.80;;;;;;;;;;5035991;28;20253;-83
2022/06/26 03:07:36;;;;;;;2.45;1.90;;;;;;;;;;5036255;28;20210;-83
2022/06/26 03:10:04;;;;;;;2.47;2.10;;;;;;;;;;5036376;28;20257;-83
2022/06/26 03:12:31;;;;;;;2.53;2.10;;;;;;;;;;5036804;28;20264;-84
2022/06/26 03:14:58;;;;;;;4.88;2.30;;;;;;;;;;5036058;28;20245;-83
2022/06/26 03:17:25;;;;;;;3.53;2.10;;;;;;;;;;5039945;28;20207;-84
2022/06/26 03:19:54;;;;;;;4.05;2.25;;;;;;;;;;5042117;28;20261;-83
2022/06/26 03:22:21;;;;;;;6.07;2.20;;;;;;;;;;5034544;28;20234;-83
2022/06/26 03:24:48;;;;;;;2.13;2.03;;;;;;;;;;5033759;28;20234;-83
2022/06/26 03:27:15;;;;;;;5.55;2.20;;;;;;;;;;5034471;28;20671;-84
2022/06/26 03:29:42;;;;;;;3.97;2.47;;;;;;;;;;5034470;28;20240;-83
2022/06/26 03:32:09;;;;;;;3.47;2.08;;;;;;;;;;5034358;28;20238;-84
2022/06/26 03:34:36;;;;;;;3.22;2.25;;;;;;;;;;5034026;28;20262;-82
2022/06/26 03:37:05;;;;;;;4.57;2.42;;;;;;;;;;5034907;28;20214;-83
2022/06/26 03:39:32;;;;;;;2.00;1.90;;;;;;;;;;5034273;28;20707;-83
2022/06/26 03:42:01;;;;;;;4.70;2.33;;;;;;;;;;5034926;28;20222;-82
2022/06/26 03:44:28;;;;;;;4.83;2.17;;;;;;;;;;5034695;28;20341;-83
2022/06/26 03:46:56;;;;;;;3.95;2.05;;;;;;;;;;5035535;28;20689;-83
2022/06/26 03:49:23;;;;;;;2.35;1.90;;;;;;;;;;5035271;28;20238;-83
2022/06/26 03:51:51;;;;;;;4.85;2.40;;;;;;;;;;5035833;28;20230;-84
2022/06/26 03:54:20;;;;;;;2.73;2.23;;;;;;;;;;5034634;28;20699;-83
2022/06/26 03:56:47;;;;;;;2.30;2.13;;;;;;;;;;5035546;28;20289;-83
2022/06/26 03:59:14;;;;;;;2.70;2.50;;;;;;;;;;5035375;28;20231;-84
2022/06/26 04:01:41;;;;;;;2.45;2.25;;;;;;;;;;5035458;28;20237;-84
2022/06/26 04:04:08;;;;;;;5.17;2.60;;;;;;;;;;5035044;28;20231;-83
2022/06/26 04:06:35;;;;;;;5.53;2.40;;;;;;;;;;5035679;28;20250;-83
2022/06/26 04:09:02;;;;;;;3.57;2.17;;;;;;;;;;5035755;28;20242;-82
2022/06/26 04:11:32;;;;;;;2.50;2.03;;;;;;;;;;5036793;28;20234;-83
2022/06/26 04:13:59;;;;;;;2.95;2.20;;;;;;;;;;5035250;28;20234;-83
2022/06/26 04:16:26;;;;;;;2.20;2.00;;;;;;;;;;5036275;28;20206;-83
2022/06/26 04:18:53;;;;;;;1.83;1.73;;;;;;;;;;5035966;28;20609;-84
2022/06/26 04:21:20;;;;;;;3.72;2.13;;;;;;;;;;5036034;28;20718;-83
2022/06/26 04:23:47;;;;;;;3.83;1.90;;;;;;;;;;5036050;28;20241;-83
2022/06/26 04:26:14;;;;;;;2.17;1.98;;;;;;;;;;5037564;28;20211;-83
2022/06/26 04:28:43;;;;;;;2.25;2.05;;;;;;;;;;5036545;28;20209;-84
2022/06/26 04:31:10;;;;;;;2.63;2.20;;;;;;;;;;5036642;28;20222;-83
2022/06/26 04:33:37;;;;;;;2.20;2.00;;;;;;;;;;5036012;28;20226;-83
2022/06/26 04:36:04;;;;;;;3.58;2.55;;;;;;;;;;5036647;28;20207;-83
2022/06/26 04:38:31;;;;;;;4.63;1.90;;;;;;;;;;5036248;28;20213;-84
2022/06/26 04:40:58;;;;;;;2.45;1.77;;;;;;;;;;5038715;28;20210;-83
2022/06/26 04:43:46;;;;;;;2.20;2.10;;;;;;;;;;5039725;28;20546;-84
2022/06/26 04:46:13;;;;;;;1.83;1.73;;;;;;;;;;5041976;28;20742;-83
2022/06/26 04:48:41;;;;;;;2.53;2.30;;;;;;;;;;5042975;28;20214;-83
2022/06/26 04:51:08;;;;;;;2.43;1.90;;;;;;;;;;5042398;28;20233;-83
2022/06/26 04:53:35;;;;;;;2.57;2.43;;;;;;;;;;5038778;28;20230;-83
2022/06/26 04:56:02;;;;;;;2.13;2.03;;;;;;;;;;5039184;28;20214;-83
2022/06/26 04:58:29;;;;;;;2.17;1.87;;;;;;;;;;5039307;28;20242;-83
2022/06/26 05:00:58;;;;;;;2.17;2.08;;;;;;;;;;5038466;28;20202;-84
2022/06/26 05:03:25;;;;;;;2.03;1.70;;;;;;;;;;5038461;28;20206;-84
2022/06/26 05:05:52;;;;;;;2.65;2.20;;;;;;;;;;5037933;28;20226;-83
2022/06/26 05:08:19;;;;;;;6.78;2.90;;;;;;;;;;5039748;28;20213;-83
2022/06/26 05:10:46;;;;;;;5.10;2.30;;;;;;;;;;5039017;28;20237;-83
2022/06/26 05:13:13;;;;;;;3.20;2.22;;;;;;;;;;5040117;28;20724;-83
2022/06/26 05:15:40;;;;;;;4.03;2.30;;;;;;;;;;5037954;28;20244;-83
2022/06/26 05:18:09;;;;;;;4.57;3.67;;;;;;;;;;5042317;28;20203;-83
2022/06/26 05:20:36;;;;;;;2.83;2.50;;;;;;;;;;5043253;28;20249;-84
2022/06/26 05:23:03;;;;;;;9.00;4.22;;;;;;;;;;5043775;28;20230;-83
2022/06/26 05:25:30;;;;;;;8.70;2.60;;;;;;;;;;5042779;28;20249;-83
2022/06/26 05:27:57;;;;;;;2.25;2.13;;;;;;;;;;5040627;28;20611;-83
2022/06/26 05:30:24;;;;;;;6.65;2.50;;;;;;;;;;5044398;28;20250;-83
2022/06/26 05:32:51;;;;;;;3.90;2.75;;;;;;;;;;5046831;28;20230;-83
2022/06/26 05:35:20;;;;;;;2.78;2.22;;;;;;;;;;5045763;28;20235;-83
2022/06/26 05:37:47;;;;;;;2.85;2.65;;;;;;;;;;5046294;28;20211;-83
2022/06/26 05:40:14;;;;;;;5.15;2.58;;;;;;;;;;5045349;28;20261;-82
2022/06/26 05:42:41;;;;;;;3.75;2.65;;;;;;;;;;5043883;28;20230;-82
2022/06/26 05:45:09;;;;;;;5.70;2.60;;;;;;;;;;5043823;28;20242;-83
2022/06/26 05:47:36;;;;;;;6.90;2.50;;;;;;;;;;5044432;28;20206;-82
2022/06/26 05:50:03;;;;;;;4.15;2.38;;;;;;;;;;5043665;28;20570;-84
2022/06/26 05:52:31;;;;;;;2.70;2.50;;;;;;;;;;5043766;28;20226;-83
2022/06/26 05:54:58;;;;;;;5.38;2.85;;;;;;;;;;5042572;28;20242;-82
2022/06/26 05:57:25;;;;;;;4.57;2.70;;;;;;;;;;5047014;28;20202;-84
2022/06/26 05:59:52;;;;;;;2.50;2.40;;;;;;;;;;5047086;28;20230;-83
2022/06/26 06:02:20;;;;;;;4.95;2.45;;;;;;;;;;5048141;28;20246;-83
2022/06/26 06:04:47;;;;;;;2.13;2.03;;;;;;;;;;5045957;28;20234;-82
2022/06/26 06:07:14;;;;;;;2.72;2.35;;;;;;;;;;5044286;28;20195;-82
2022/06/26 06:09:42;;;;;;;1.88;1.77;;;;;;;;;;5043066;28;20246;-81
2022/06/26 06:12:10;;;;;;;3.25;1.80;;;;;;;;;;5043087;28;20742;-81
2022/06/26 06:14:37;;;;;;;1.70;1.60;;;;;;;;;;5042520;28;20245;-81
2022/06/26 06:19:45;;;;;;;1.60;1.50;;;;;;;;;;5045854;28;20240;-81
2022/06/26 06:22:12;;;;;;;1.40;1.30;;;;;;;;;;5044992;28;20257;-82
2022/06/26 06:24:39;;;;;;;1.40;1.30;;;;;;;;;;5043826;28;20662;-82
2022/06/26 06:27:07;;;;;;;0.93;0.93;;;;;;;;;;5045667;28;20202;-82
2022/06/26 06:29:34;;;;;;;3.55;1.00;;;;;;;;;;5043014;28;20723;-82
2022/06/26 06:32:01;;;;;;;1.10;1.00;;;;;;;;;;5043813;28;20227;-82
2022/06/26 06:34:28;;;;;;;1.02;1.00;;;;;;;;;;5041305;28;20238;-82
2022/06/26 06:36:56;;;;;;;2.65;1.30;;;;;;;;;;5043941;28;20742;-82
2022/06/26 06:39:23;;;;;;;0.98;0.98;;;;;;;;;;5043855;28;20250;-83
2022/06/26 06:41:50;;;;;;;0.80;0.80;;;;;;;;;;5043755;28;20231;-82
2022/06/26 06:44:18;;;;;;;0.70;0.70;;;;;;;;;;5044142;28;20238;-82
2022/06/26 06:46:45;;;;;;;1.27;1.08;;;;;;;;;;5043657;28;20621;-82
2022/06/26 06:49:13;;;;;;;0.82;0.82;;;;;;;;;;5043478;28;20235;-84
2022/06/26 06:51:40;;;;;;;2.05;1.13;;;;;;;;;;5042721;28;20233;-84
2022/06/26 06:54:08;;;;;;;0.80;0.80;;;;;;;;;;5041736;28;20246;-82
2022/06/26 06:56:35;;;;;;;1.40;1.30;;;;;;;;;;5043828;28;20219;-84
2022/06/26 06:59:02;;;;;;;1.27;1.00;;;;;;;;;;5042159;28;20245;-82
2022/06/26 07:01:30;;;;;;;0.88;0.77;;;;;;;;;;5042464;28;20234;-83
2022/06/26 07:03:57;;;;;;;2.17;1.35;;;;;;;;;;5041893;28;20564;-82
2022/06/26 07:06:25;;;;;;;0.90;0.90;;;;;;;;;;5041256;28;20199;-82
2022/06/26 07:08:52;;;;;;;1.30;1.10;;;;;;;;;;5042062;28;20227;-82
2022/06/26 07:11:20;;;;;;;1.10;1.00;;;;;;;;;;5041964;28;20309;-82
2022/06/26 07:13:47;;;;;;;0.85;0.70;;;;;;;;;;5042276;28;20246;-82
2022/06/26 07:16:14;;;;;;;0.90;0.90;;;;;;;;;;5042166;28;20202;-82
2022/06/26 07:18:42;;;;;;;3.00;0.70;;;;;;;;;;5041482;28;20211;-81
2022/06/26 07:21:09;;;;;;;1.15;1.10;;;;;;;;;;5041335;28;20227;-82
2022/06/26 07:23:36;;;;;;;0.70;0.70;;;;;;;;;;5041215;28;20202;-83
2022/06/26 07:26:04;;;;;;;2.15;1.05;;;;;;;;;;5042284;28;20202;-83
2022/06/26 07:28:31;;;;;;;1.50;0.95;;;;;;;;;;5042132;28;20253;-82
2022/06/26 07:30:58;;;;;;;1.33;1.20;;;;;;;;;;5043033;28;20207;-83
2022/06/26 07:36:12;;;;;;;1.10;1.00;;;;;;;;;;5042656;28;20713;-84
2022/06/26 07:38:39;;;;;;;2.83;1.20;;;;;;;;;;5042504;28;20221;-82
2022/06/26 07:41:06;;;;;;;0.90;0.90;;;;;;;;;;5041496;28;20228;-84
2022/06/26 07:43:33;;;;;;;1.75;0.93;;;;;;;;;;5040423;28;20210;-82
2022/06/26 07:46:00;;;;;;;0.85;0.70;;;;;;;;;;5038462;28;20213;-85
2022/06/26 07:48:27;;;;;;;0.90;0.90;;;;;;;;;;5039214;28;20690;-82
2022/06/26 07:50:54;;;;;;;3.95;1.15;;;;;;;;;;5039648;28;20213;-83
2022/06/26 07:53:22;;;;;;;1.17;0.70;;;;;;;;;;5039673;28;20206;-83
2022/06/26 07:55:49;;;;;;;1.20;0.80;;;;;;;;;;5040464;28;20234;-82
2022/06/26 07:58:16;;;;;;;2.80;0.70;;;;;;;;;;5039925;28;20203;-84
2022/06/26 08:00:43;;;;;;;0.85;0.85;;;;;;;;;;5038661;28;20706;-82
2022/06/26 08:03:13;;;;;;;1.13;0.90;;;;;;;;;;5038025;28;20188;-84
2022/06/26 08:05:41;;;;;;;3.58;0.80;;;;;;;;;;5037781;28;20238;-83
2022/06/26 08:08:08;;;;;;;0.82;0.70;;;;;;;;;;5037695;28;20210;-82
2022/06/26 08:10:37;;;;;;;0.68;0.68;;;;;;;;;;5038013;28;20234;-83
2022/06/26 08:13:05;;;;;;;0.85;0.80;;;;;;;;;;5038686;28;20699;-86
2022/06/26 08:15:32;;;;;;;0.60;0.60;;;;;;;;;;5045230;28;20234;-83
2022/06/26 08:17:59;;;;;;;1.00;0.73;;;;;;;;;;5033565;28;20600;-83
2022/06/26 08:20:26;;;;;;;2.58;0.85;;;;;;;;;;5033457;28;20616;-83
2022/06/26 08:22:52;;;;;;;0.93;0.60;;;;;;;;;;5034586;28;20226;-82
2022/06/26 08:25:19;;;;;;;0.82;0.82;;;;;;;;;;5034403;28;20699;-83
2022/06/26 08:27:48;;;;;;;0.98;0.52;;;;;;;;;;5034613;28;20194;-83
2022/06/26 08:30:15;;;;;;;0.85;0.70;;;;;;;;;;5034302;28;20613;-83
2022/06/26 08:32:42;;;;;;;1.40;0.80;;;;;;;;;;5034905;28;20226;-83
2022/06/26 08:35:10;;;;;;;1.80;1.08;;;;;;;;;;5034475;28;20246;-83
2022/06/26 08:37:37;;;;;;;1.05;0.80;;;;;;;;;;5036968;28;20207;-82
2022/06/26 08:40:04;;;;;;;0.98;0.98;;;;;;;;;;5035170;28;20234;-83
2022/06/26 08:42:32;;;;;;;0.88;0.60;;;;;;;;;;5035299;28;20223;-82
2022/06/26 08:45:00;;;;;;;0.57;0.57;;;;;;;;;;5036257;28;20317;-81
2022/06/26 08:47:30;;;;;;;1.48;0.95;;;;;;;;;;5040047;28;20211;-83
2022/06/26 08:49:58;;;;;;;0.75;0.60;;;;;;;;;;5039810;28;20611;-83
2022/06/26 08:52:27;;;;;;;0.80;0.80;;;;;;;;;;5040653;28;20227;-83
2022/06/26 08:54:54;;;;;;;0.93;0.90;;;;;;;;;;5040141;28;20657;-83
2022/06/26 08:57:21;;;;;;;2.50;0.68;;;;;;;;;;5039599;28;20202;-82
2022/06/26 08:59:48;;;;;;;0.73;0.73;;;;;;;;;;5038072;28;20234;-84
2022/06/26 09:02:17;;;;;;;0.50;0.50;;;;;;;;;;5037921;28;20234;-83
2022/06/26 09:04:44;;;;;;;0.90;0.90;;;;;;;;;;5038674;28;20238;-83
2022/06/26 09:07:11;;;;;;;0.85;0.57;;;;;;;;;;5037509;28;20221;-83
2022/06/26 09:09:39;;;;;;;1.35;0.80;;;;;;;;;;5037835;28;20260;-84
2022/06/26 09:12:07;;;;;;;0.90;0.90;;;;;;;;;;5037828;28;20262;-83
2022/06/26 09:14:34;;;;;;;1.42;0.63;;;;;;;;;;5036397;28;20702;-83
2022/06/26 09:17:01;;;;;;;1.55;0.65;;;;;;;;;;5037547;28;20214;-83
2022/06/26 09:19:33;;;;;;;0.68;0.65;;;;;;;;;;5036123;28;20233;-84
2022/06/26 09:22:07;;;;;;;0.90;0.90;;;;;;;;;;5037607;28;20245;-83
2022/06/26 09:24:36;;;;;;;0.60;0.60;;;;;;;;;;5036370;28;20724;-83
2022/06/26 09:27:04;;;;;;;0.80;0.80;;;;;;;;;;5037473;28;20260;-84
2022/06/26 09:29:31;;;;;;;3.35;1.27;;;;;;;;;;5037563;28;20234;-84
2022/06/26 09:32:07;;;;;;;0.52;0.50;;;;;;;;;;5036802;28;20238;-84
2022/06/26 09:34:35;;;;;;;0.82;0.65;;;;;;;;;;5037077;28;20672;-83
2022/06/26 09:37:03;;;;;;;0.65;0.60;;;;;;;;;;5042696;28;20264;-84
2022/06/26 09:39:31;;;;;;;0.50;0.50;;;;;;;;;;5038941;28;20341;-84
2022/06/26 09:41:58;;;;;;;0.80;0.55;;;;;;;;;;5038293;28;20227;-84
2022/06/26 09:44:25;;;;;;;0.95;0.63;;;;;;;;;;5037015;28;20659;-84
2022/06/26 09:46:52;;;;;;;0.88;0.68;;;;;;;;;;5036650;28;20217;-84
2022/06/26 09:49:19;;;;;;;1.05;0.73;;;;;;;;;;5036471;28;20246;-83
2022/06/26 09:51:48;;;;;;;1.58;0.80;;;;;;;;;;5042406;28;20329;-84
2022/06/26 09:54:15;;;;;;;0.60;0.60;;;;;;;;;;5037324;28;20234;-84
2022/06/26 09:56:42;;;;;;;1.50;0.63;;;;;;;;;;5036845;28;20199;-84
2022/06/26 09:59:10;;;;;;;0.55;0.55;;;;;;;;;;5036035;28;20234;-83
2022/06/26 10:07:08;;;;;;;0.80;0.80;;;;;;;;;;5035600;28;20222;-84
2022/06/26 10:09:36;;;;;;;1.48;0.60;;;;;;;;;;5035203;28;20687;-84
2022/06/26 10:12:04;;;;;;;1.77;0.50;;;;;;;;;;5033323;28;20263;-84
2022/06/26 10:14:33;;;;;;;3.40;0.82;;;;;;;;;;5032111;28;20241;-84
2022/06/26 10:17:15;;;;;;;0.50;0.50;;;;;;;;;;5032489;28;20214;-84
2022/06/26 10:19:44;;;;;;;0.73;0.55;;;;;;;;;;5031389;28;20265;-84
2022/06/26 10:22:13;;;;;;;0.43;0.43;;;;;;;;;;5031642;28;20285;-84
2022/06/26 10:24:53;;;;;;;0.50;0.50;;;;;;;;;;5030940;28;20226;-84
2022/06/26 10:27:24;;;;;;;0.70;0.70;;;;;;;;;;5032320;28;20683;-84
2022/06/26 10:29:51;;;;;;;0.93;0.57;;;;;;;;;;5031802;28;20706;-84
2022/06/26 10:32:24;;;;;;;1.05;0.68;;;;;;;;;;5031683;28;20233;-84
2022/06/26 10:34:55;;;;;;;0.88;0.65;;;;;;;;;;5031097;28;20602;-85
2022/06/26 10:37:24;;;;;;;0.50;0.50;;;;;;;;;;5031754;28;20235;-85
2022/06/26 10:39:52;;;;;;;0.95;0.50;;;;;;;;;;5031364;28;20257;-84
2022/06/26 10:45:06;;;;;;;0.40;0.40;;;;;;;;;;5034986;28;20233;-84
2022/06/26 10:47:41;;;;;;;0.57;0.57;;;;;;;;;;5035344;28;20214;-85
2022/06/26 10:50:23;;;;;;;0.40;0.40;;;;;;;;;;5034866;28;20257;-85
2022/06/26 10:52:51;;;;;;;2.17;0.50;;;;;;;;;;5035433;28;20252;-85
2022/06/26 10:55:18;;;;;;;0.60;0.57;;;;;;;;;;5034044;28;20245;-84
2022/06/26 10:57:45;;;;;;;0.80;0.80;;;;;;;;;;5035135;28;20215;-85
2022/06/26 11:00:14;;;;;;;0.85;0.65;;;;;;;;;;5034571;28;20235;-85
2022/06/26 11:02:44;;;;;;;0.73;0.73;;;;;;;;;;5034791;28;20234;-85
2022/06/26 11:05:11;;;;;;;0.50;0.50;;;;;;;;;;5034266;28;20300;-85
2022/06/26 11:07:45;;;;;;;1.77;0.50;;;;;;;;;;5034845;28;20194;-85
2022/06/26 11:10:15;;;;;;;1.00;0.68;;;;;;;;;;5034109;28;20235;-85
2022/06/26 11:12:43;;;;;;;0.52;0.52;;;;;;;;;;5034675;28;20583;-85
2022/06/26 11:15:20;;;;;;;0.63;0.47;;;;;;;;;;5033535;28;20702;-86
2022/06/26 11:17:52;;;;;;;0.30;0.30;;;;;;;;;;5034346;28;20233;-85
2022/06/26 11:23:11;;;;;;;2.50;1.08;;;;;;;;;;5034432;28;20344;-83
2022/06/26 11:25:40;;;;;;;0.50;0.50;;;;;;;;;;5033785;28;20225;-83
2022/06/26 11:28:08;;;;;;;0.40;0.40;;;;;;;;;;5034432;28;20241;-83
2022/06/26 11:30:35;;;;;;;0.50;0.50;;;;;;;;;;5033821;28;20710;-83
2022/06/26 11:33:02;;;;;;;0.60;0.60;;;;;;;;;;5033834;28;20744;-82
2022/06/26 11:35:30;;;;;;;0.60;0.60;;;;;;;;;;5033630;28;21000;-83
2022/06/26 11:37:57;;;;;;;0.63;0.63;;;;;;;;;;5034012;28;20209;-83
2022/06/26 11:40:25;;;;;;;0.45;0.45;;;;;;;;;;5033782;28;20238;-83
2022/06/26 11:42:57;;;;;;;0.70;0.45;;;;;;;;;;5033835;28;20222;-84
2022/06/26 11:45:25;;;;;;;1.17;0.50;;;;;;;;;;5033267;28;20248;-83
2022/06/26 11:47:53;;;;;;;0.60;0.60;;;;;;;;;;5034166;28;20206;-83
2022/06/26 11:50:20;;;;;;;0.65;0.50;;;;;;;;;;5033413;28;20733;-83
2022/06/26 11:52:52;;;;;;;0.50;0.50;;;;;;;;;;5033825;28;20234;-83
2022/06/26 11:55:19;;;;;;;0.40;0.40;;;;;;;;;;5033235;28;20702;-83
2022/06/26 11:57:46;;;;;;;0.63;0.45;;;;;;;;;;5033873;28;20241;-82
2022/06/26 12:00:15;;;;;;;0.55;0.55;;;;;;;;;;5033328;28;20656;-83
2022/06/26 12:02:43;;;;;;;0.52;0.40;;;;;;;;;;5037660;28;20234;-83
2022/06/26 12:05:10;;;;;;;0.20;0.20;;;;;;;;;;5035947;28;20234;-83
2022/06/26 12:07:41;;;;;;;1.10;0.60;;;;;;;;;;5035130;28;20690;-82
2022/06/26 12:10:08;;;;;;;0.47;0.47;;;;;;;;;;5034218;28;20241;-83
2022/06/26 12:12:35;;;;;;;0.50;0.50;;;;;;;;;;5034296;28;20240;-83
2022/06/26 12:15:03;;;;;;;1.08;0.70;;;;;;;;;;5033141;28;20242;-83
2022/06/26 12:17:31;;;;;;;1.00;0.73;;;;;;;;;;5033388;28;20798;-83
2022/06/26 12:20:07;;;;;;;0.50;0.50;;;;;;;;;;5033246;28;20244;-83
2022/06/26 12:22:34;;;;;;;0.73;0.45;;;;;;;;;;5034916;28;20256;-83
2022/06/26 12:25:02;;;;;;;0.43;0.43;;;;;;;;;;5034466;28;20244;-82
2022/06/26 12:27:36;;;;;;;0.70;0.70;;;;;;;;;;5034259;28;20213;-83
2022/06/26 12:30:04;;;;;;;0.63;0.63;;;;;;;;;;5034277;28;20233;-82
2022/06/26 12:32:32;;;;;;;0.70;0.60;;;;;;;;;;5034001;28;20241;-83
2022/06/26 12:34:59;;;;;;;0.40;0.40;;;;;;;;;;5033892;28;20606;-83
2022/06/26 12:37:26;;;;;;;0.68;0.60;;;;;;;;;;5034440;28;20210;-82
2022/06/26 12:39:54;;;;;;;0.70;0.52;;;;;;;;;;5033781;28;20234;-83
2022/06/26 12:42:21;;;;;;;0.85;0.60;;;;;;;;;;5034476;28;20226;-83
2022/06/26 12:44:48;;;;;;;0.85;0.63;;;;;;;;;;5033325;28;20238;-82
2022/06/26 12:47:15;;;;;;;0.50;0.50;;;;;;;;;;5034348;28;20217;-83
2022/06/26 12:49:43;;;;;;;0.40;0.40;;;;;;;;;;5034251;28;20241;-83
2022/06/26 12:52:10;;;;;;;0.65;0.65;;;;;;;;;;5033617;28;20230;-83
2022/06/26 12:54:37;;;;;;;1.30;0.50;;;;;;;;;;5033313;28;20238;-83
2022/06/26 12:57:04;;;;;;;0.85;0.50;;;;;;;;;;5034416;28;20213;-83
2022/06/26 12:59:31;;;;;;;0.50;0.50;;;;;;;;;;5035771;28;20237;-83
2022/06/26 13:01:59;;;;;;;0.40;0.40;;;;;;;;;;5043979;28;20237;-83
2022/06/26 13:04:26;;;;;;;0.70;0.70;;;;;;;;;;5036216;28;20241;-83
2022/06/26 13:06:54;;;;;;;0.68;0.68;;;;;;;;;;5034879;28;20230;-82
2022/06/26 13:09:21;;;;;;;0.60;0.60;;;;;;;;;;5035108;28;20234;-82
2022/06/26 13:11:48;;;;;;;0.73;0.73;;;;;;;;;;5034074;28;20234;-83
2022/06/26 13:14:15;;;;;;;2.15;0.70;;;;;;;;;;5032408;28;20260;-83
2022/06/26 13:16:44;;;;;;;0.47;0.47;;;;;;;;;;5032495;28;20229;-83
2022/06/26 13:19:11;;;;;;;0.45;0.45;;;;;;;;;;5032118;28;20262;-83
2022/06/26 13:21:39;;;;;;;0.50;0.50;;;;;;;;;;5032688;28;20242;-83
2022/06/26 13:24:08;;;;;;;0.73;0.50;;;;;;;;;;5031646;28;20725;-83
2022/06/26 13:26:35;;;;;;;0.40;0.40;;;;;;;;;;5032624;28;20213;-83
2022/06/26 13:29:02;;;;;;;0.55;0.45;;;;;;;;;;5033136;28;20331;-83
2022/06/26 13:31:29;;;;;;;0.95;0.70;;;;;;;;;;5034235;28;20226;-83
2022/06/26 13:33:56;;;;;;;0.55;0.55;;;;;;;;;;5033129;28;20233;-83
2022/06/26 13:36:23;;;;;;;0.50;0.50;;;;;;;;;;5032381;28;20218;-82
2022/06/26 13:38:51;;;;;;;0.65;0.65;;;;;;;;;;5032450;28;20233;-84
2022/06/26 13:41:19;;;;;;;0.55;0.55;;;;;;;;;;5032358;28;20309;-83
2022/06/26 13:43:47;;;;;;;0.77;0.50;;;;;;;;;;5031599;28;20209;-84
2022/06/26 13:46:14;;;;;;;1.00;0.40;;;;;;;;;;5032203;28;20214;-83
2022/06/26 13:48:41;;;;;;;0.55;0.55;;;;;;;;;;5032063;28;20617;-83
2022/06/26 13:51:08;;;;;;;1.52;0.80;;;;;;;;;;5032409;28;20256;-83
2022/06/26 13:53:35;;;;;;;0.85;0.82;;;;;;;;;;5031254;28;20202;-83
2022/06/26 13:56:02;;;;;;;0.60;0.57;;;;;;;;;;5032530;28;20237;-83
2022/06/26 13:58:31;;;;;;;1.63;0.60;;;;;;;;;;5032055;28;20213;-83
2022/06/26 14:00:58;;;;;;;2.08;0.60;;;;;;;;;;5033390;28;20242;-83
2022/06/26 14:03:25;;;;;;;0.95;0.65;;;;;;;;;;5031767;28;20905;-84
2022/06/26 14:05:54;;;;;;;0.57;0.52;;;;;;;;;;5032158;28;20226;-83
2022/06/26 14:08:21;;;;;;;0.75;0.75;;;;;;;;;;5032141;28;20579;-83
2022/06/26 14:10:49;;;;;;;0.88;0.88;;;;;;;;;;5031543;28;20249;-83
2022/06/26 14:13:16;;;;;;;1.55;0.47;;;;;;;;;;5031829;28;20214;-84
2022/06/26 14:15:44;;;;;;;1.23;1.00;;;;;;;;;;5031424;28;20241;-83
2022/06/26 14:18:11;;;;;;;0.60;0.50;;;;;;;;;;5035675;28;20683;-83
2022/06/26 14:20:39;;;;;;;0.75;0.75;;;;;;;;;;5035315;28;20740;-82
2022/06/26 14:25:58;;;;;;;0.55;0.55;;;;;;;;;;5035237;28;20257;-83
2022/06/26 14:28:25;;;;;;;0.77;0.77;;;;;;;;;;5035692;28;20190;-83
2022/06/26 14:30:54;;;;;;;0.47;0.47;;;;;;;;;;5035478;28;20226;-83
2022/06/26 14:33:21;;;;;;;0.70;0.52;;;;;;;;;;5035314;28;20206;-83
2022/06/26 14:35:48;;;;;;;0.45;0.45;;;;;;;;;;5035144;28;20241;-83
2022/06/26 14:38:17;;;;;;;0.60;0.60;;;;;;;;;;5035336;28;20203;-83
2022/06/26 14:40:45;;;;;;;1.65;0.50;;;;;;;;;;5034843;28;20702;-83
2022/06/26 14:43:12;;;;;;;0.82;0.82;;;;;;;;;;5035521;28;20210;-83
2022/06/26 14:45:39;;;;;;;4.93;4.45;;;;;;;;;;5035687;28;20253;-83
2022/06/26 14:48:08;;;;;;;1.98;1.13;;;;;;;;;;5041200;28;20210;-83
2022/06/26 14:50:35;;;;;;;0.57;0.50;;;;;;;;;;5040600;28;20241;-83
2022/06/26 14:53:02;;;;;;;1.77;1.17;;;;;;;;;;5040439;28;20223;-83
2022/06/26 14:55:29;;;;;;;1.00;0.77;;;;;;;;;;5038758;28;20246;-83
2022/06/26 14:57:57;;;;;;;1.70;1.60;;;;;;;;;;5041656;28;20203;-83
2022/06/26 15:00:24;;;;;;;1.80;1.70;;;;;;;;;;5040661;28;20234;-85
2022/06/26 15:02:52;;;;;;;14.10;11.02;;;;;;;;;;5042998;28;20226;-83
2022/06/26 15:05:20;;;;;;;4.95;4.43;;;;;;;;;;5038841;28;20233;-83
2022/06/26 15:07:47;;;;;;;1.48;1.38;;;;;;;;;;5037452;28;20218;-83
2022/06/26 15:10:14;;;;;;;7.50;6.78;;;;;;;;;;5037436;28;20762;-83
2022/06/26 15:12:41;;;;;;;15.35;12.07;;;;;;;;;;5038130;28;20227;-84